sensor_id;sensor_type;location;lat;lon;timestamp;P1;durP1;ratioP1;P2;durP2;ratioP2
18606;SDS011;9433;42.678;23.360;2022-08-19T00:00:07;6.53;;;4.70;;
18606;SDS011;9433;42.678;23.360;2022-08-19T00:02:40;5.70;;;4.47;;
18606;SDS011;9433;42.678;23.360;2022-08-19T00:05:07;5.87;;;4.50;;
18606;SDS011;9433;42.678;23.360;2022-08-19T00:07:38;5.90;;;4.40;;
18606;SDS011;9433;42.678;23.360;2022-08-19T00:10:05;6.87;;;4.40;;
18606;SDS011;9433;42.678;23.360;2022-08-19T00:12:33;4.87;;;4.03;;
18606;SDS011;9433;42.678;23.360;2022-08-19T00:15:03;6.00;;;4.83;;
18606;SDS011;9433;42.678;23.360;2022-08-19T00:17:30;5.10;;;4.63;;
18606;SDS011;9433;42.678;23.360;2022-08-19T00:19:57;5.03;;;4.50;;
18606;SDS011;9433;42.678;23.360;2022-08-19T00:22:24;5.43;;;4.83;;
18606;SDS011;9433;42.678;23.360;2022-08-19T00:24:54;8.60;;;4.23;;
18606;SDS011;9433;42.678;23.360;2022-08-19T00:27:21;6.27;;;4.60;;
18606;SDS011;9433;42.678;23.360;2022-08-19T00:29:48;4.60;;;4.20;;
18606;SDS011;9433;42.678;23.360;2022-08-19T00:32:15;5.17;;;4.13;;
18606;SDS011;9433;42.678;23.360;2022-08-19T00:34:43;5.43;;;4.93;;
18606;SDS011;9433;42.678;23.360;2022-08-19T00:37:09;5.40;;;4.80;;
18606;SDS011;9433;42.678;23.360;2022-08-19T00:39:36;5.50;;;4.43;;
18606;SDS011;9433;42.678;23.360;2022-08-19T00:42:05;5.10;;;4.60;;
18606;SDS011;9433;42.678;23.360;2022-08-19T00:44:32;5.23;;;4.73;;
18606;SDS011;9433;42.678;23.360;2022-08-19T00:46:59;5.17;;;4.30;;
18606;SDS011;9433;42.678;23.360;2022-08-19T00:49:27;6.93;;;5.30;;
18606;SDS011;9433;42.678;23.360;2022-08-19T00:51:59;5.40;;;4.97;;
18606;SDS011;9433;42.678;23.360;2022-08-19T00:54:28;5.10;;;4.67;;
18606;SDS011;9433;42.678;23.360;2022-08-19T00:56:56;5.30;;;4.33;;
18606;SDS011;9433;42.678;23.360;2022-08-19T00:59:25;5.00;;;4.60;;
18606;SDS011;9433;42.678;23.360;2022-08-19T01:01:54;6.30;;;4.63;;
18606;SDS011;9433;42.678;23.360;2022-08-19T01:04:21;5.30;;;4.80;;
18606;SDS011;9433;42.678;23.360;2022-08-19T01:06:48;5.43;;;4.93;;
18606;SDS011;9433;42.678;23.360;2022-08-19T01:09:14;4.27;;;3.97;;
18606;SDS011;9433;42.678;23.360;2022-08-19T01:11:41;5.13;;;4.63;;
18606;SDS011;9433;42.678;23.360;2022-08-19T01:14:10;5.93;;;5.33;;
18606;SDS011;9433;42.678;23.360;2022-08-19T01:16:40;5.20;;;4.70;;
18606;SDS011;9433;42.678;23.360;2022-08-19T01:19:09;6.10;;;5.00;;
18606;SDS011;9433;42.678;23.360;2022-08-19T01:21:45;5.00;;;4.50;;
18606;SDS011;9433;42.678;23.360;2022-08-19T01:24:19;5.50;;;5.00;;
18606;SDS011;9433;42.678;23.360;2022-08-19T01:26:46;4.97;;;4.47;;
18606;SDS011;9433;42.678;23.360;2022-08-19T01:29:13;5.73;;;4.63;;
18606;SDS011;9433;42.678;23.360;2022-08-19T01:31:40;6.30;;;4.63;;
18606;SDS011;9433;42.678;23.360;2022-08-19T01:34:07;7.20;;;5.23;;
18606;SDS011;9433;42.678;23.360;2022-08-19T01:36:36;6.00;;;4.73;;
18606;SDS011;9433;42.678;23.360;2022-08-19T01:39:08;5.30;;;4.83;;
18606;SDS011;9433;42.678;23.360;2022-08-19T01:41:38;6.20;;;4.70;;
18606;SDS011;9433;42.678;23.360;2022-08-19T01:44:05;8.33;;;4.97;;
18606;SDS011;9433;42.678;23.360;2022-08-19T01:46:33;5.10;;;4.60;;
18606;SDS011;9433;42.678;23.360;2022-08-19T01:49:00;5.77;;;5.23;;
18606;SDS011;9433;42.678;23.360;2022-08-19T01:51:28;5.50;;;4.80;;
18606;SDS011;9433;42.678;23.360;2022-08-19T01:53:55;6.93;;;4.77;;
18606;SDS011;9433;42.678;23.360;2022-08-19T01:56:22;7.27;;;5.00;;
18606;SDS011;9433;42.678;23.360;2022-08-19T01:58:52;5.13;;;4.63;;
18606;SDS011;9433;42.678;23.360;2022-08-19T02:01:21;5.30;;;4.77;;
18606;SDS011;9433;42.678;23.360;2022-08-19T02:03:48;5.30;;;4.80;;
18606;SDS011;9433;42.678;23.360;2022-08-19T02:06:16;5.50;;;4.47;;
18606;SDS011;9433;42.678;23.360;2022-08-19T02:08:43;4.90;;;4.50;;
18606;SDS011;9433;42.678;23.360;2022-08-19T02:11:18;5.87;;;4.80;;
18606;SDS011;9433;42.678;23.360;2022-08-19T02:13:46;5.80;;;5.10;;
18606;SDS011;9433;42.678;23.360;2022-08-19T02:16:15;6.60;;;5.87;;
18606;SDS011;9433;42.678;23.360;2022-08-19T02:18:43;5.30;;;4.80;;
18606;SDS011;9433;42.678;23.360;2022-08-19T02:21:10;5.60;;;5.10;;
18606;SDS011;9433;42.678;23.360;2022-08-19T02:23:38;4.93;;;4.50;;
18606;SDS011;9433;42.678;23.360;2022-08-19T02:26:05;5.70;;;5.17;;
18606;SDS011;9433;42.678;23.360;2022-08-19T02:28:32;4.87;;;4.40;;
18606;SDS011;9433;42.678;23.360;2022-08-19T02:30:58;5.57;;;5.07;;
18606;SDS011;9433;42.678;23.360;2022-08-19T02:33:28;5.43;;;4.90;;
18606;SDS011;9433;42.678;23.360;2022-08-19T02:35:56;5.67;;;4.87;;
18606;SDS011;9433;42.678;23.360;2022-08-19T02:38:22;5.50;;;4.87;;
18606;SDS011;9433;42.678;23.360;2022-08-19T02:40:52;5.63;;;5.13;;
18606;SDS011;9433;42.678;23.360;2022-08-19T02:43:21;4.87;;;4.47;;
18606;SDS011;9433;42.678;23.360;2022-08-19T02:45:49;6.33;;;5.07;;
18606;SDS011;9433;42.678;23.360;2022-08-19T02:48:17;5.47;;;4.97;;
18606;SDS011;9433;42.678;23.360;2022-08-19T02:50:46;5.70;;;5.13;;
18606;SDS011;9433;42.678;23.360;2022-08-19T02:53:17;5.73;;;4.57;;
18606;SDS011;9433;42.678;23.360;2022-08-19T02:55:44;5.30;;;4.80;;
18606;SDS011;9433;42.678;23.360;2022-08-19T02:58:13;6.83;;;5.27;;
18606;SDS011;9433;42.678;23.360;2022-08-19T03:00:41;5.47;;;4.97;;
18606;SDS011;9433;42.678;23.360;2022-08-19T03:03:09;7.13;;;5.27;;
18606;SDS011;9433;42.678;23.360;2022-08-19T03:05:36;4.97;;;4.40;;
18606;SDS011;9433;42.678;23.360;2022-08-19T03:08:04;5.53;;;4.83;;
18606;SDS011;9433;42.678;23.360;2022-08-19T03:10:31;5.53;;;5.03;;
18606;SDS011;9433;42.678;23.360;2022-08-19T03:12:58;8.33;;;5.87;;
18606;SDS011;9433;42.678;23.360;2022-08-19T03:15:25;5.47;;;4.97;;
18606;SDS011;9433;42.678;23.360;2022-08-19T03:17:52;5.57;;;5.07;;
18606;SDS011;9433;42.678;23.360;2022-08-19T03:20:19;5.73;;;4.60;;
18606;SDS011;9433;42.678;23.360;2022-08-19T03:22:46;5.63;;;5.03;;
18606;SDS011;9433;42.678;23.360;2022-08-19T03:25:14;6.80;;;5.37;;
18606;SDS011;9433;42.678;23.360;2022-08-19T03:27:41;6.60;;;4.97;;
18606;SDS011;9433;42.678;23.360;2022-08-19T03:30:09;5.93;;;4.47;;
18606;SDS011;9433;42.678;23.360;2022-08-19T03:32:36;5.73;;;5.17;;
18606;SDS011;9433;42.678;23.360;2022-08-19T03:35:03;6.57;;;4.87;;
18606;SDS011;9433;42.678;23.360;2022-08-19T03:37:31;5.83;;;4.50;;
18606;SDS011;9433;42.678;23.360;2022-08-19T03:39:58;5.40;;;4.90;;
18606;SDS011;9433;42.678;23.360;2022-08-19T03:42:26;6.23;;;5.60;;
18606;SDS011;9433;42.678;23.360;2022-08-19T03:44:53;5.37;;;4.87;;
18606;SDS011;9433;42.678;23.360;2022-08-19T03:47:20;5.87;;;5.27;;
18606;SDS011;9433;42.678;23.360;2022-08-19T03:49:47;8.30;;;5.30;;
18606;SDS011;9433;42.678;23.360;2022-08-19T03:52:13;5.80;;;5.23;;
18606;SDS011;9433;42.678;23.360;2022-08-19T03:54:40;6.70;;;5.30;;
18606;SDS011;9433;42.678;23.360;2022-08-19T03:57:07;5.67;;;4.93;;
18606;SDS011;9433;42.678;23.360;2022-08-19T03:59:37;7.50;;;5.70;;
18606;SDS011;9433;42.678;23.360;2022-08-19T04:02:06;7.53;;;5.23;;
18606;SDS011;9433;42.678;23.360;2022-08-19T04:04:34;7.77;;;5.40;;
18606;SDS011;9433;42.678;23.360;2022-08-19T04:07:02;6.23;;;5.63;;
18606;SDS011;9433;42.678;23.360;2022-08-19T04:09:29;6.53;;;5.70;;
18606;SDS011;9433;42.678;23.360;2022-08-19T04:11:56;6.83;;;5.47;;
18606;SDS011;9433;42.678;23.360;2022-08-19T04:14:24;7.90;;;5.30;;
18606;SDS011;9433;42.678;23.360;2022-08-19T04:16:56;9.53;;;5.83;;
18606;SDS011;9433;42.678;23.360;2022-08-19T04:19:24;6.23;;;5.63;;
18606;SDS011;9433;42.678;23.360;2022-08-19T04:21:52;8.20;;;6.20;;
18606;SDS011;9433;42.678;23.360;2022-08-19T04:24:21;6.10;;;5.27;;
18606;SDS011;9433;42.678;23.360;2022-08-19T04:26:49;6.63;;;5.80;;
18606;SDS011;9433;42.678;23.360;2022-08-19T04:29:17;7.00;;;5.37;;
18606;SDS011;9433;42.678;23.360;2022-08-19T04:31:47;5.50;;;5.00;;
18606;SDS011;9433;42.678;23.360;2022-08-19T04:34:18;7.27;;;5.43;;
18606;SDS011;9433;42.678;23.360;2022-08-19T04:36:47;6.20;;;4.93;;
18606;SDS011;9433;42.678;23.360;2022-08-19T04:39:16;7.20;;;5.73;;
18606;SDS011;9433;42.678;23.360;2022-08-19T04:41:44;6.23;;;5.73;;
18606;SDS011;9433;42.678;23.360;2022-08-19T04:44:29;8.93;;;5.73;;
18606;SDS011;9433;42.678;23.360;2022-08-19T04:46:56;6.33;;;5.30;;
18606;SDS011;9433;42.678;23.360;2022-08-19T04:49:24;6.17;;;5.50;;
18606;SDS011;9433;42.678;23.360;2022-08-19T04:51:52;6.87;;;5.47;;
18606;SDS011;9433;42.678;23.360;2022-08-19T04:54:20;6.27;;;5.37;;
18606;SDS011;9433;42.678;23.360;2022-08-19T04:56:48;7.27;;;6.23;;
18606;SDS011;9433;42.678;23.360;2022-08-19T04:59:17;6.17;;;5.57;;
18606;SDS011;9433;42.678;23.360;2022-08-19T05:01:45;11.83;;;8.43;;
18606;SDS011;9433;42.678;23.360;2022-08-19T05:04:14;7.60;;;6.87;;
18606;SDS011;9433;42.678;23.360;2022-08-19T05:06:43;6.40;;;5.80;;
18606;SDS011;9433;42.678;23.360;2022-08-19T05:09:10;5.47;;;4.97;;
18606;SDS011;9433;42.678;23.360;2022-08-19T05:11:37;6.10;;;5.43;;
18606;SDS011;9433;42.678;23.360;2022-08-19T05:14:04;5.43;;;4.93;;
18606;SDS011;9433;42.678;23.360;2022-08-19T05:16:31;5.60;;;5.10;;
18606;SDS011;9433;42.678;23.360;2022-08-19T05:18:58;7.90;;;5.53;;
18606;SDS011;9433;42.678;23.360;2022-08-19T05:21:44;6.00;;;5.40;;
18606;SDS011;9433;42.678;23.360;2022-08-19T05:24:29;6.67;;;5.13;;
18606;SDS011;9433;42.678;23.360;2022-08-19T05:26:59;5.60;;;5.10;;
18606;SDS011;9433;42.678;23.360;2022-08-19T05:29:29;5.60;;;5.07;;
18606;SDS011;9433;42.678;23.360;2022-08-19T05:31:57;6.23;;;5.60;;
18606;SDS011;9433;42.678;23.360;2022-08-19T05:34:25;7.67;;;5.73;;
18606;SDS011;9433;42.678;23.360;2022-08-19T05:36:54;6.70;;;5.77;;
18606;SDS011;9433;42.678;23.360;2022-08-19T05:39:23;6.73;;;5.13;;
18606;SDS011;9433;42.678;23.360;2022-08-19T05:41:52;5.77;;;5.27;;
18606;SDS011;9433;42.678;23.360;2022-08-19T05:44:22;6.47;;;5.87;;
18606;SDS011;9433;42.678;23.360;2022-08-19T05:46:50;6.17;;;5.43;;
18606;SDS011;9433;42.678;23.360;2022-08-19T05:49:20;6.90;;;5.53;;
18606;SDS011;9433;42.678;23.360;2022-08-19T05:51:48;7.17;;;5.47;;
18606;SDS011;9433;42.678;23.360;2022-08-19T05:54:17;11.77;;;5.77;;
18606;SDS011;9433;42.678;23.360;2022-08-19T05:56:45;6.03;;;5.53;;
18606;SDS011;9433;42.678;23.360;2022-08-19T05:59:13;6.20;;;5.60;;
18606;SDS011;9433;42.678;23.360;2022-08-19T06:01:42;6.97;;;5.50;;
18606;SDS011;9433;42.678;23.360;2022-08-19T06:04:10;6.17;;;5.57;;
18606;SDS011;9433;42.678;23.360;2022-08-19T06:06:38;6.27;;;5.67;;
18606;SDS011;9433;42.678;23.360;2022-08-19T06:09:06;6.20;;;5.60;;
18606;SDS011;9433;42.678;23.360;2022-08-19T06:11:36;5.90;;;5.37;;
18606;SDS011;9433;42.678;23.360;2022-08-19T06:14:07;6.57;;;5.77;;
18606;SDS011;9433;42.678;23.360;2022-08-19T06:16:37;6.43;;;5.37;;
18606;SDS011;9433;42.678;23.360;2022-08-19T06:19:06;6.70;;;6.00;;
18606;SDS011;9433;42.678;23.360;2022-08-19T06:21:35;6.63;;;6.03;;
18606;SDS011;9433;42.678;23.360;2022-08-19T06:24:03;10.50;;;6.03;;
18606;SDS011;9433;42.678;23.360;2022-08-19T06:26:31;6.57;;;5.83;;
18606;SDS011;9433;42.678;23.360;2022-08-19T06:29:02;6.27;;;5.63;;
18606;SDS011;9433;42.678;23.360;2022-08-19T06:31:31;8.37;;;6.03;;
18606;SDS011;9433;42.678;23.360;2022-08-19T06:33:59;6.20;;;5.57;;
18606;SDS011;9433;42.678;23.360;2022-08-19T06:36:29;6.43;;;5.70;;
18606;SDS011;9433;42.678;23.360;2022-08-19T06:38:59;6.80;;;5.57;;
18606;SDS011;9433;42.678;23.360;2022-08-19T06:41:26;6.43;;;5.80;;
18606;SDS011;9433;42.678;23.360;2022-08-19T06:43:54;7.60;;;5.67;;
18606;SDS011;9433;42.678;23.360;2022-08-19T06:46:23;5.43;;;5.03;;
18606;SDS011;9433;42.678;23.360;2022-08-19T06:48:50;5.47;;;4.57;;
18606;SDS011;9433;42.678;23.360;2022-08-19T06:51:18;6.53;;;5.17;;
18606;SDS011;9433;42.678;23.360;2022-08-19T06:53:46;5.93;;;4.82;;
18606;SDS011;9433;42.678;23.360;2022-08-19T06:56:13;7.20;;;5.53;;
18606;SDS011;9433;42.678;23.360;2022-08-19T06:58:40;5.70;;;5.18;;
18606;SDS011;9433;42.678;23.360;2022-08-19T07:01:07;7.10;;;5.35;;
18606;SDS011;9433;42.678;23.360;2022-08-19T07:03:36;5.88;;;5.25;;
18606;SDS011;9433;42.678;23.360;2022-08-19T07:06:05;6.32;;;5.35;;
18606;SDS011;9433;42.678;23.360;2022-08-19T07:08:33;4.95;;;4.55;;
18606;SDS011;9433;42.678;23.360;2022-08-19T07:11:01;7.45;;;5.13;;
18606;SDS011;9433;42.678;23.360;2022-08-19T07:13:28;5.85;;;5.32;;
18606;SDS011;9433;42.678;23.360;2022-08-19T07:16:02;6.03;;;5.10;;
18606;SDS011;9433;42.678;23.360;2022-08-19T07:18:30;4.85;;;4.35;;
18606;SDS011;9433;42.678;23.360;2022-08-19T07:21:03;5.90;;;5.40;;
18606;SDS011;9433;42.678;23.360;2022-08-19T07:23:30;5.53;;;4.78;;
18606;SDS011;9433;42.678;23.360;2022-08-19T07:25:58;5.85;;;5.25;;
18606;SDS011;9433;42.678;23.360;2022-08-19T07:28:30;5.60;;;4.95;;
18606;SDS011;9433;42.678;23.360;2022-08-19T07:30:56;5.68;;;4.80;;
18606;SDS011;9433;42.678;23.360;2022-08-19T07:33:25;5.55;;;5.05;;
18606;SDS011;9433;42.678;23.360;2022-08-19T07:35:52;5.13;;;4.57;;
18606;SDS011;9433;42.678;23.360;2022-08-19T07:38:20;6.60;;;5.15;;
18606;SDS011;9433;42.678;23.360;2022-08-19T07:40:47;4.65;;;4.25;;
18606;SDS011;9433;42.678;23.360;2022-08-19T07:43:16;5.05;;;4.55;;
18606;SDS011;9433;42.678;23.360;2022-08-19T07:45:50;5.35;;;4.85;;
18606;SDS011;9433;42.678;23.360;2022-08-19T07:48:17;4.95;;;4.45;;
18606;SDS011;9433;42.678;23.360;2022-08-19T07:50:44;4.93;;;4.53;;
18606;SDS011;9433;42.678;23.360;2022-08-19T07:53:10;5.15;;;4.65;;
18606;SDS011;9433;42.678;23.360;2022-08-19T07:55:39;5.28;;;4.68;;
18606;SDS011;9433;42.678;23.360;2022-08-19T07:58:07;7.82;;;4.35;;
18606;SDS011;9433;42.678;23.360;2022-08-19T08:00:36;5.05;;;4.55;;
18606;SDS011;9433;42.678;23.360;2022-08-19T08:03:04;4.97;;;4.47;;
18606;SDS011;9433;42.678;23.360;2022-08-19T08:05:30;4.50;;;4.10;;
18606;SDS011;9433;42.678;23.360;2022-08-19T08:08:15;6.25;;;5.05;;
18606;SDS011;9433;42.678;23.360;2022-08-19T08:11:01;5.03;;;4.53;;
18606;SDS011;9433;42.678;23.360;2022-08-19T08:13:27;5.32;;;4.82;;
18606;SDS011;9433;42.678;23.360;2022-08-19T08:15:54;5.45;;;4.38;;
18606;SDS011;9433;42.678;23.360;2022-08-19T08:18:21;4.63;;;4.30;;
18606;SDS011;9433;42.678;23.360;2022-08-19T08:20:48;4.65;;;4.20;;
18606;SDS011;9433;42.678;23.360;2022-08-19T08:23:15;4.57;;;4.07;;
18606;SDS011;9433;42.678;23.360;2022-08-19T08:25:50;4.47;;;4.07;;
18606;SDS011;9433;42.678;23.360;2022-08-19T08:28:19;5.90;;;4.50;;
18606;SDS011;9433;42.678;23.360;2022-08-19T08:30:46;4.38;;;3.97;;
18606;SDS011;9433;42.678;23.360;2022-08-19T08:33:13;4.60;;;4.20;;
18606;SDS011;9433;42.678;23.360;2022-08-19T08:35:43;4.75;;;4.35;;
18606;SDS011;9433;42.678;23.360;2022-08-19T08:38:10;4.25;;;3.95;;
18606;SDS011;9433;42.678;23.360;2022-08-19T08:40:39;4.20;;;3.80;;
18606;SDS011;9433;42.678;23.360;2022-08-19T08:43:20;4.55;;;4.15;;
18606;SDS011;9433;42.678;23.360;2022-08-19T08:45:55;4.45;;;4.03;;
18606;SDS011;9433;42.678;23.360;2022-08-19T08:48:34;4.45;;;4.05;;
18606;SDS011;9433;42.678;23.360;2022-08-19T08:51:05;4.47;;;3.97;;
18606;SDS011;9433;42.678;23.360;2022-08-19T08:53:36;4.53;;;4.13;;
18606;SDS011;9433;42.678;23.360;2022-08-19T08:56:03;5.28;;;4.30;;
18606;SDS011;9433;42.678;23.360;2022-08-19T08:58:36;4.32;;;3.80;;
18606;SDS011;9433;42.678;23.360;2022-08-19T09:01:11;3.85;;;3.55;;
18606;SDS011;9433;42.678;23.360;2022-08-19T09:03:39;3.83;;;3.42;;
18606;SDS011;9433;42.678;23.360;2022-08-19T09:06:10;4.03;;;3.63;;
18606;SDS011;9433;42.678;23.360;2022-08-19T09:08:45;4.43;;;4.03;;
18606;SDS011;9433;42.678;23.360;2022-08-19T09:11:19;4.45;;;3.63;;
18606;SDS011;9433;42.678;23.360;2022-08-19T09:14:07;5.20;;;3.65;;
18606;SDS011;9433;42.678;23.360;2022-08-19T09:16:39;3.83;;;3.30;;
18606;SDS011;9433;42.678;23.360;2022-08-19T09:19:06;3.08;;;2.88;;
18606;SDS011;9433;42.678;23.360;2022-08-19T09:21:35;4.35;;;3.22;;
18606;SDS011;9433;42.678;23.360;2022-08-19T09:24:03;5.18;;;3.50;;
18606;SDS011;9433;42.678;23.360;2022-08-19T09:26:31;3.28;;;2.97;;
18606;SDS011;9433;42.678;23.360;2022-08-19T09:29:00;3.45;;;2.63;;
18606;SDS011;9433;42.678;23.360;2022-08-19T09:31:30;3.95;;;3.55;;
18606;SDS011;9433;42.678;23.360;2022-08-19T09:33:57;3.08;;;2.85;;
18606;SDS011;9433;42.678;23.360;2022-08-19T09:36:26;3.08;;;2.88;;
18606;SDS011;9433;42.678;23.360;2022-08-19T09:38:57;6.50;;;4.38;;
18606;SDS011;9433;42.678;23.360;2022-08-19T09:41:25;2.28;;;2.17;;
18606;SDS011;9433;42.678;23.360;2022-08-19T09:43:53;2.70;;;2.50;;
18606;SDS011;9433;42.678;23.360;2022-08-19T09:46:23;3.10;;;2.63;;
18606;SDS011;9433;42.678;23.360;2022-08-19T09:48:51;3.13;;;2.80;;
18606;SDS011;9433;42.678;23.360;2022-08-19T09:51:19;2.75;;;2.55;;
18606;SDS011;9433;42.678;23.360;2022-08-19T09:53:48;2.72;;;2.47;;
18606;SDS011;9433;42.678;23.360;2022-08-19T09:56:18;3.30;;;3.10;;
18606;SDS011;9433;42.678;23.360;2022-08-19T09:58:46;3.20;;;3.00;;
18606;SDS011;9433;42.678;23.360;2022-08-19T10:01:17;3.13;;;2.83;;
18606;SDS011;9433;42.678;23.360;2022-08-19T10:03:48;4.07;;;2.60;;
18606;SDS011;9433;42.678;23.360;2022-08-19T10:06:16;2.75;;;2.55;;
18606;SDS011;9433;42.678;23.360;2022-08-19T10:08:44;5.55;;;4.05;;
18606;SDS011;9433;42.678;23.360;2022-08-19T10:11:12;3.90;;;3.60;;
18606;SDS011;9433;42.678;23.360;2022-08-19T10:13:41;4.57;;;3.53;;
18606;SDS011;9433;42.678;23.360;2022-08-19T10:16:10;2.67;;;2.40;;
18606;SDS011;9433;42.678;23.360;2022-08-19T10:18:38;3.25;;;2.90;;
18606;SDS011;9433;42.678;23.360;2022-08-19T10:21:10;2.70;;;2.50;;
18606;SDS011;9433;42.678;23.360;2022-08-19T10:23:39;3.17;;;2.88;;
18606;SDS011;9433;42.678;23.360;2022-08-19T10:26:10;2.90;;;2.70;;
18606;SDS011;9433;42.678;23.360;2022-08-19T10:28:38;2.78;;;2.50;;
18606;SDS011;9433;42.678;23.360;2022-08-19T10:31:06;3.20;;;2.88;;
18606;SDS011;9433;42.678;23.360;2022-08-19T10:33:34;3.28;;;2.97;;
18606;SDS011;9433;42.678;23.360;2022-08-19T10:36:03;2.80;;;2.60;;
18606;SDS011;9433;42.678;23.360;2022-08-19T10:38:32;2.78;;;2.58;;
18606;SDS011;9433;42.678;23.360;2022-08-19T10:41:05;3.35;;;2.78;;
18606;SDS011;9433;42.678;23.360;2022-08-19T10:43:33;3.33;;;3.03;;
18606;SDS011;9433;42.678;23.360;2022-08-19T10:46:02;3.95;;;3.17;;
18606;SDS011;9433;42.678;23.360;2022-08-19T10:48:30;3.30;;;2.90;;
18606;SDS011;9433;42.678;23.360;2022-08-19T10:50:57;3.15;;;2.85;;
18606;SDS011;9433;42.678;23.360;2022-08-19T10:53:43;3.10;;;2.80;;
18606;SDS011;9433;42.678;23.360;2022-08-19T10:56:10;3.15;;;2.85;;
18606;SDS011;9433;42.678;23.360;2022-08-19T10:58:54;4.07;;;2.83;;
18606;SDS011;9433;42.678;23.360;2022-08-19T11:01:21;3.67;;;3.17;;
18606;SDS011;9433;42.678;23.360;2022-08-19T11:03:48;4.57;;;3.20;;
18606;SDS011;9433;42.678;23.360;2022-08-19T11:06:15;2.50;;;2.30;;
18606;SDS011;9433;42.678;23.360;2022-08-19T11:08:44;3.40;;;2.65;;
18606;SDS011;9433;42.678;23.360;2022-08-19T11:11:11;3.13;;;2.83;;
18606;SDS011;9433;42.678;23.360;2022-08-19T11:13:38;3.10;;;2.80;;
18606;SDS011;9433;42.678;23.360;2022-08-19T11:16:07;2.78;;;2.58;;
18606;SDS011;9433;42.678;23.360;2022-08-19T11:18:36;2.88;;;2.67;;
18606;SDS011;9433;42.678;23.360;2022-08-19T11:21:07;3.90;;;2.95;;
18606;SDS011;9433;42.678;23.360;2022-08-19T11:23:36;3.67;;;3.38;;
18606;SDS011;9433;42.678;23.360;2022-08-19T11:26:04;3.80;;;3.33;;
18606;SDS011;9433;42.678;23.360;2022-08-19T11:28:31;3.13;;;2.83;;
18606;SDS011;9433;42.678;23.360;2022-08-19T11:30:58;3.30;;;3.05;;
18606;SDS011;9433;42.678;23.360;2022-08-19T11:33:25;2.97;;;2.78;;
18606;SDS011;9433;42.678;23.360;2022-08-19T11:35:52;3.55;;;3.00;;
18606;SDS011;9433;42.678;23.360;2022-08-19T11:38:19;2.90;;;2.70;;
18606;SDS011;9433;42.678;23.360;2022-08-19T11:40:53;3.30;;;3.10;;
18606;SDS011;9433;42.678;23.360;2022-08-19T11:43:22;3.10;;;2.83;;
18606;SDS011;9433;42.678;23.360;2022-08-19T11:45:51;3.08;;;2.78;;
18606;SDS011;9433;42.678;23.360;2022-08-19T11:48:18;2.83;;;2.63;;
18606;SDS011;9433;42.678;23.360;2022-08-19T11:50:47;4.22;;;3.45;;
18606;SDS011;9433;42.678;23.360;2022-08-19T11:53:14;3.28;;;2.97;;
18606;SDS011;9433;42.678;23.360;2022-08-19T11:55:41;3.10;;;2.80;;
18606;SDS011;9433;42.678;23.360;2022-08-19T11:58:08;3.75;;;3.13;;
18606;SDS011;9433;42.678;23.360;2022-08-19T12:00:37;3.75;;;2.97;;
18606;SDS011;9433;42.678;23.360;2022-08-19T12:03:04;3.53;;;3.30;;
18606;SDS011;9433;42.678;23.360;2022-08-19T12:05:31;3.38;;;2.83;;
18606;SDS011;9433;42.678;23.360;2022-08-19T12:07:58;3.35;;;3.00;;
18606;SDS011;9433;42.678;23.360;2022-08-19T12:10:25;3.15;;;2.85;;
18606;SDS011;9433;42.678;23.360;2022-08-19T12:12:52;2.97;;;2.63;;
18606;SDS011;9433;42.678;23.360;2022-08-19T12:15:18;3.30;;;3.00;;
18606;SDS011;9433;42.678;23.360;2022-08-19T12:17:47;3.03;;;2.75;;
18606;SDS011;9433;42.678;23.360;2022-08-19T12:20:14;3.20;;;2.95;;
18606;SDS011;9433;42.678;23.360;2022-08-19T12:22:42;5.28;;;3.33;;
18606;SDS011;9433;42.678;23.360;2022-08-19T12:25:10;4.40;;;3.03;;
18606;SDS011;9433;42.678;23.360;2022-08-19T12:27:38;3.17;;;2.92;;
18606;SDS011;9433;42.678;23.360;2022-08-19T12:30:05;3.55;;;3.25;;
18606;SDS011;9433;42.678;23.360;2022-08-19T12:32:34;4.40;;;3.45;;
18606;SDS011;9433;42.678;23.360;2022-08-19T12:35:02;4.10;;;3.05;;
18606;SDS011;9433;42.678;23.360;2022-08-19T12:37:30;3.63;;;3.33;;
18606;SDS011;9433;42.678;23.360;2022-08-19T12:39:57;4.10;;;3.25;;
18606;SDS011;9433;42.678;23.360;2022-08-19T12:42:24;3.22;;;2.97;;
18606;SDS011;9433;42.678;23.360;2022-08-19T12:44:51;3.42;;;3.22;;
18606;SDS011;9433;42.678;23.360;2022-08-19T12:47:18;3.20;;;3.00;;
18606;SDS011;9433;42.678;23.360;2022-08-19T12:49:45;3.47;;;3.17;;
18606;SDS011;9433;42.678;23.360;2022-08-19T12:52:13;3.72;;;3.28;;
18606;SDS011;9433;42.678;23.360;2022-08-19T12:54:41;3.03;;;2.70;;
18606;SDS011;9433;42.678;23.360;2022-08-19T12:57:09;5.18;;;3.58;;
18606;SDS011;9433;42.678;23.360;2022-08-19T12:59:37;3.50;;;2.88;;
18606;SDS011;9433;42.678;23.360;2022-08-19T13:02:05;3.45;;;3.15;;
18606;SDS011;9433;42.678;23.360;2022-08-19T13:04:33;3.40;;;3.10;;
18606;SDS011;9433;42.678;23.360;2022-08-19T13:07:03;3.13;;;2.92;;
18606;SDS011;9433;42.678;23.360;2022-08-19T13:09:31;4.05;;;3.75;;
18606;SDS011;9433;42.678;23.360;2022-08-19T13:11:59;3.58;;;3.28;;
18606;SDS011;9433;42.678;23.360;2022-08-19T13:14:27;3.83;;;3.45;;
18606;SDS011;9433;42.678;23.360;2022-08-19T13:16:56;3.83;;;3.28;;
18606;SDS011;9433;42.678;23.360;2022-08-19T13:19:23;4.00;;;3.70;;
18606;SDS011;9433;42.678;23.360;2022-08-19T13:21:50;5.03;;;3.83;;
18606;SDS011;9433;42.678;23.360;2022-08-19T13:24:17;4.00;;;2.92;;
18606;SDS011;9433;42.678;23.360;2022-08-19T13:26:45;3.03;;;2.83;;
18606;SDS011;9433;42.678;23.360;2022-08-19T13:29:12;3.40;;;3.10;;
18606;SDS011;9433;42.678;23.360;2022-08-19T13:31:57;5.70;;;3.67;;
18606;SDS011;9433;42.678;23.360;2022-08-19T13:34:41;3.70;;;3.03;;
18606;SDS011;9433;42.678;23.360;2022-08-19T13:37:08;3.20;;;3.00;;
18606;SDS011;9433;42.678;23.360;2022-08-19T13:39:35;3.60;;;3.30;;
18606;SDS011;9433;42.678;23.360;2022-08-19T13:42:03;3.25;;;2.92;;
18606;SDS011;9433;42.678;23.360;2022-08-19T13:44:32;3.70;;;3.40;;
18606;SDS011;9433;42.678;23.360;2022-08-19T13:47:02;5.38;;;3.25;;
18606;SDS011;9433;42.678;23.360;2022-08-19T13:49:32;3.53;;;3.22;;
18606;SDS011;9433;42.678;23.360;2022-08-19T13:51:59;3.83;;;3.53;;
18606;SDS011;9433;42.678;23.360;2022-08-19T13:54:26;2.72;;;2.53;;
18606;SDS011;9433;42.678;23.360;2022-08-19T13:56:53;3.65;;;3.30;;
18606;SDS011;9433;42.678;23.360;2022-08-19T13:59:21;5.30;;;3.55;;
18606;SDS011;9433;42.678;23.360;2022-08-19T14:01:48;4.88;;;3.72;;
18606;SDS011;9433;42.678;23.360;2022-08-19T14:04:15;3.45;;;3.00;;
18606;SDS011;9433;42.678;23.360;2022-08-19T14:06:41;3.80;;;3.50;;
18606;SDS011;9433;42.678;23.360;2022-08-19T14:09:08;3.67;;;3.38;;
18606;SDS011;9433;42.678;23.360;2022-08-19T14:11:35;3.45;;;2.90;;
18606;SDS011;9433;42.678;23.360;2022-08-19T14:14:02;3.83;;;3.22;;
18606;SDS011;9433;42.678;23.360;2022-08-19T14:16:30;3.40;;;3.10;;
18606;SDS011;9433;42.678;23.360;2022-08-19T14:18:57;3.95;;;3.25;;
18606;SDS011;9433;42.678;23.360;2022-08-19T14:21:24;3.10;;;2.90;;
18606;SDS011;9433;42.678;23.360;2022-08-19T14:23:51;3.65;;;3.40;;
18606;SDS011;9433;42.678;23.360;2022-08-19T14:26:19;3.25;;;2.95;;
18606;SDS011;9433;42.678;23.360;2022-08-19T14:28:48;4.93;;;3.85;;
18606;SDS011;9433;42.678;23.360;2022-08-19T14:31:16;4.93;;;3.30;;
18606;SDS011;9433;42.678;23.360;2022-08-19T14:33:46;4.03;;;3.65;;
18606;SDS011;9433;42.678;23.360;2022-08-19T14:36:13;4.50;;;3.50;;
18606;SDS011;9433;42.678;23.360;2022-08-19T14:38:39;6.63;;;3.72;;
18606;SDS011;9433;42.678;23.360;2022-08-19T14:41:07;3.40;;;3.17;;
18606;SDS011;9433;42.678;23.360;2022-08-19T14:43:36;3.50;;;3.20;;
18606;SDS011;9433;42.678;23.360;2022-08-19T14:46:04;3.42;;;3.13;;
18606;SDS011;9433;42.678;23.360;2022-08-19T14:48:31;5.80;;;2.88;;
18606;SDS011;9433;42.678;23.360;2022-08-19T14:50:59;3.28;;;2.95;;
18606;SDS011;9433;42.678;23.360;2022-08-19T14:53:26;4.40;;;3.10;;
18606;SDS011;9433;42.678;23.360;2022-08-19T14:55:53;3.78;;;3.13;;